sensor_id;sensor_type;location;lat;lon;timestamp;temperature;humidity
20512;DHT22;10414;52.074;5.126;2023-11-21T00:01:19;8.50;99.90
20512;DHT22;10414;52.074;5.126;2023-11-21T00:03:48;8.50;99.90
20512;DHT22;10414;52.074;5.126;2023-11-21T00:06:20;8.50;99.90
20512;DHT22;10414;52.074;5.126;2023-11-21T00:08:47;8.60;99.90
20512;DHT22;10414;52.074;5.126;2023-11-21T00:11:13;8.50;99.90
20512;DHT22;10414;52.074;5.126;2023-11-21T00:13:40;8.70;99.90
20512;DHT22;10414;52.074;5.126;2023-11-21T00:16:07;8.60;99.90
20512;DHT22;10414;52.074;5.126;2023-11-21T00:18:35;8.70;99.90
20512;DHT22;10414;52.074;5.126;2023-11-21T00:21:03;8.70;99.90
20512;DHT22;10414;52.074;5.126;2023-11-21T00:23:30;8.70;99.90
20512;DHT22;10414;52.074;5.126;2023-11-21T00:25:56;8.70;99.90
20512;DHT22;10414;52.074;5.126;2023-11-21T00:28:23;8.80;99.90
20512;DHT22;10414;52.074;5.126;2023-11-21T00:30:50;8.70;99.90
20512;DHT22;10414;52.074;5.126;2023-11-21T00:33:17;8.70;99.90
20512;DHT22;10414;52.074;5.126;2023-11-21T00:35:46;8.70;99.90
20512;DHT22;10414;52.074;5.126;2023-11-21T00:38:13;8.60;99.90
20512;DHT22;10414;52.074;5.126;2023-11-21T00:40:40;8.70;99.90
20512;DHT22;10414;52.074;5.126;2023-11-21T00:43:09;8.70;99.90
20512;DHT22;10414;52.074;5.126;2023-11-21T00:45:36;8.60;99.90
20512;DHT22;10414;52.074;5.126;2023-11-21T00:48:04;8.60;99.90
20512;DHT22;10414;52.074;5.126;2023-11-21T00:50:31;8.60;99.90
20512;DHT22;10414;52.074;5.126;2023-11-21T00:52:59;8.60;99.90
20512;DHT22;10414;52.074;5.126;2023-11-21T00:55:27;8.60;99.90
20512;DHT22;10414;52.074;5.126;2023-11-21T00:57:55;8.50;99.90
20512;DHT22;10414;52.074;5.126;2023-11-21T01:00:23;8.60;99.90
20512;DHT22;10414;52.074;5.126;2023-11-21T01:02:50;8.60;99.90
20512;DHT22;10414;52.074;5.126;2023-11-21T01:05:23;8.70;99.90
20512;DHT22;10414;52.074;5.126;2023-11-21T01:07:53;8.70;99.90
20512;DHT22;10414;52.074;5.126;2023-11-21T01:10:21;8.80;99.90
20512;DHT22;10414;52.074;5.126;2023-11-21T01:12:48;8.80;99.90
20512;DHT22;10414;52.074;5.126;2023-11-21T01:15:14;8.90;99.90
20512;DHT22;10414;52.074;5.126;2023-11-21T01:17:41;8.90;99.90
20512;DHT22;10414;52.074;5.126;2023-11-21T01:20:09;8.80;99.90
20512;DHT22;10414;52.074;5.126;2023-11-21T01:22:38;8.80;99.90
20512;DHT22;10414;52.074;5.126;2023-11-21T01:25:08;8.60;99.90
20512;DHT22;10414;52.074;5.126;2023-11-21T01:27:37;8.10;99.90
20512;DHT22;10414;52.074;5.126;2023-11-21T01:30:04;7.80;99.90
20512;DHT22;10414;52.074;5.126;2023-11-21T01:32:33;7.80;99.90
20512;DHT22;10414;52.074;5.126;2023-11-21T01:35:00;7.90;99.90
20512;DHT22;10414;52.074;5.126;2023-11-21T01:37:27;8.30;99.90
20512;DHT22;10414;52.074;5.126;2023-11-21T01:39:54;8.40;99.90
20512;DHT22;10414;52.074;5.126;2023-11-21T01:42:21;8.30;99.90
20512;DHT22;10414;52.074;5.126;2023-11-21T01:44:51;8.40;99.90
20512;DHT22;10414;52.074;5.126;2023-11-21T01:47:18;8.30;99.90
20512;DHT22;10414;52.074;5.126;2023-11-21T01:49:46;8.60;99.90
20512;DHT22;10414;52.074;5.126;2023-11-21T01:52:13;9.00;99.90
20512;DHT22;10414;52.074;5.126;2023-11-21T01:54:43;9.10;99.90
20512;DHT22;10414;52.074;5.126;2023-11-21T01:57:10;9.40;99.90
20512;DHT22;10414;52.074;5.126;2023-11-21T01:59:37;9.50;99.90
20512;DHT22;10414;52.074;5.126;2023-11-21T02:02:12;9.60;99.90
20512;DHT22;10414;52.074;5.126;2023-11-21T02:04:39;9.70;99.90
20512;DHT22;10414;52.074;5.126;2023-11-21T02:07:07;9.60;99.90
20512;DHT22;10414;52.074;5.126;2023-11-21T02:09:37;9.80;99.90
20512;DHT22;10414;52.074;5.126;2023-11-21T02:12:08;10.00;99.90
20512;DHT22;10414;52.074;5.126;2023-11-21T02:14:36;10.10;99.90
20512;DHT22;10414;52.074;5.126;2023-11-21T02:17:03;9.60;99.90
20512;DHT22;10414;52.074;5.126;2023-11-21T02:19:31;9.60;99.90
20512;DHT22;10414;52.074;5.126;2023-11-21T02:21:59;9.90;99.90
20512;DHT22;10414;52.074;5.126;2023-11-21T02:24:31;10.00;99.90
20512;DHT22;10414;52.074;5.126;2023-11-21T02:26:58;10.20;99.90
20512;DHT22;10414;52.074;5.126;2023-11-21T02:29:25;10.20;99.90
20512;DHT22;10414;52.074;5.126;2023-11-21T02:31:54;10.10;99.90
20512;DHT22;10414;52.074;5.126;2023-11-21T02:34:22;10.30;99.90
20512;DHT22;10414;52.074;5.126;2023-11-21T02:36:52;10.20;99.90
20512;DHT22;10414;52.074;5.126;2023-11-21T02:39:19;10.30;99.90
20512;DHT22;10414;52.074;5.126;2023-11-21T02:41:50;10.30;99.90
20512;DHT22;10414;52.074;5.126;2023-11-21T02:44:17;10.50;99.90
20512;DHT22;10414;52.074;5.126;2023-11-21T02:46:43;10.30;99.90
20512;DHT22;10414;52.074;5.126;2023-11-21T02:49:10;10.20;99.90
20512;DHT22;10414;52.074;5.126;2023-11-21T02:51:37;10.30;99.90
20512;DHT22;10414;52.074;5.126;2023-11-21T02:54:20;10.30;99.90
20512;DHT22;10414;52.074;5.126;2023-11-21T02:56:48;10.50;99.90
20512;DHT22;10414;52.074;5.126;2023-11-21T02:59:17;10.60;99.90
20512;DHT22;10414;52.074;5.126;2023-11-21T03:01:45;10.70;99.90
20512;DHT22;10414;52.074;5.126;2023-11-21T03:04:11;10.80;99.90
20512;DHT22;10414;52.074;5.126;2023-11-21T03:06:43;10.90;99.90
20512;DHT22;10414;52.074;5.126;2023-11-21T03:09:09;10.90;99.90
20512;DHT22;10414;52.074;5.126;2023-11-21T03:11:37;11.00;99.90
20512;DHT22;10414;52.074;5.126;2023-11-21T03:14:08;11.00;99.90
20512;DHT22;10414;52.074;5.126;2023-11-21T03:16:36;11.10;99.90
20512;DHT22;10414;52.074;5.126;2023-11-21T03:19:06;11.00;99.90
20512;DHT22;10414;52.074;5.126;2023-11-21T03:21:33;10.60;99.90
20512;DHT22;10414;52.074;5.126;2023-11-21T03:24:00;10.70;99.90
20512;DHT22;10414;52.074;5.126;2023-11-21T03:26:27;10.70;99.90
20512;DHT22;10414;52.074;5.126;2023-11-21T03:28:55;10.80;99.90
20512;DHT22;10414;52.074;5.126;2023-11-21T03:31:23;10.70;99.90
20512;DHT22;10414;52.074;5.126;2023-11-21T03:33:50;10.60;99.90
20512;DHT22;10414;52.074;5.126;2023-11-21T03:36:19;10.70;99.90
20512;DHT22;10414;52.074;5.126;2023-11-21T03:38:48;10.90;99.90
20512;DHT22;10414;52.074;5.126;2023-11-21T03:41:14;10.90;99.90
20512;DHT22;10414;52.074;5.126;2023-11-21T03:43:41;11.00;99.90
20512;DHT22;10414;52.074;5.126;2023-11-21T03:46:08;11.00;99.90
20512;DHT22;10414;52.074;5.126;2023-11-21T03:48:36;11.00;99.90
20512;DHT22;10414;52.074;5.126;2023-11-21T03:51:04;11.00;99.90
20512;DHT22;10414;52.074;5.126;2023-11-21T03:53:31;11.00;99.90
20512;DHT22;10414;52.074;5.126;2023-11-21T03:55:57;11.10;99.90
20512;DHT22;10414;52.074;5.126;2023-11-21T03:58:24;10.90;99.90
20512;DHT22;10414;52.074;5.126;2023-11-21T04:00:51;11.00;99.90
20512;DHT22;10414;52.074;5.126;2023-11-21T04:03:18;11.00;99.90
20512;DHT22;10414;52.074;5.126;2023-11-21T04:05:46;11.10;99.90
20512;DHT22;10414;52.074;5.126;2023-11-21T04:08:16;11.10;99.90
20512;DHT22;10414;52.074;5.126;2023-11-21T04:10:43;11.10;99.90
20512;DHT22;10414;52.074;5.126;2023-11-21T04:13:10;11.00;99.90
20512;DHT22;10414;52.074;5.126;2023-11-21T04:15:36;11.00;99.90
20512;DHT22;10414;52.074;5.126;2023-11-21T04:18:03;10.80;99.90
20512;DHT22;10414;52.074;5.126;2023-11-21T04:20:30;10.90;99.90
20512;DHT22;10414;52.074;5.126;2023-11-21T04:23:04;11.00;99.90
20512;DHT22;10414;52.074;5.126;2023-11-21T04:25:34;10.90;99.90
20512;DHT22;10414;52.074;5.126;2023-11-21T04:28:00;11.00;99.90
20512;DHT22;10414;52.074;5.126;2023-11-21T04:30:29;11.00;99.90
20512;DHT22;10414;52.074;5.126;2023-11-21T04:32:58;11.10;99.90
20512;DHT22;10414;52.074;5.126;2023-11-21T04:35:25;11.20;99.90
20512;DHT22;10414;52.074;5.126;2023-11-21T04:37:52;11.20;99.90
20512;DHT22;10414;52.074;5.126;2023-11-21T04:40:20;11.00;99.90
20512;DHT22;10414;52.074;5.126;2023-11-21T04:42:47;10.90;99.90
20512;DHT22;10414;52.074;5.126;2023-11-21T04:45:17;11.00;99.90
20512;DHT22;10414;52.074;5.126;2023-11-21T04:47:51;11.00;99.90
20512;DHT22;10414;52.074;5.126;2023-11-21T04:50:18;11.00;99.90
20512;DHT22;10414;52.074;5.126;2023-11-21T04:52:45;11.20;99.90
20512;DHT22;10414;52.074;5.126;2023-11-21T04:55:12;11.20;99.90
20512;DHT22;10414;52.074;5.126;2023-11-21T04:57:42;11.20;99.90
20512;DHT22;10414;52.074;5.126;2023-11-21T05:00:10;11.30;99.90
20512;DHT22;10414;52.074;5.126;2023-11-21T05:02:40;11.10;99.90
20512;DHT22;10414;52.074;5.126;2023-11-21T05:05:09;11.20;99.90
20512;DHT22;10414;52.074;5.126;2023-11-21T05:07:42;11.00;99.90
20512;DHT22;10414;52.074;5.126;2023-11-21T05:10:09;11.10;99.90
20512;DHT22;10414;52.074;5.126;2023-11-21T05:12:37;11.20;99.90
20512;DHT22;10414;52.074;5.126;2023-11-21T05:15:07;11.20;99.90
20512;DHT22;10414;52.074;5.126;2023-11-21T05:17:35;11.10;99.90
20512;DHT22;10414;52.074;5.126;2023-11-21T05:20:06;11.00;99.90
20512;DHT22;10414;52.074;5.126;2023-11-21T05:22:34;10.70;99.90
20512;DHT22;10414;52.074;5.126;2023-11-21T05:25:01;10.90;99.90
20512;DHT22;10414;52.074;5.126;2023-11-21T05:27:30;11.00;99.90
20512;DHT22;10414;52.074;5.126;2023-11-21T05:29:57;11.20;99.90
20512;DHT22;10414;52.074;5.126;2023-11-21T05:32:25;11.10;99.90
20512;DHT22;10414;52.074;5.126;2023-11-21T05:34:53;11.20;99.90
20512;DHT22;10414;52.074;5.126;2023-11-21T05:37:20;11.30;99.90
20512;DHT22;10414;52.074;5.126;2023-11-21T05:39:46;11.40;99.90
20512;DHT22;10414;52.074;5.126;2023-11-21T05:42:13;11.50;99.90
20512;DHT22;10414;52.074;5.126;2023-11-21T05:44:42;11.50;99.90
20512;DHT22;10414;52.074;5.126;2023-11-21T05:47:09;11.50;99.90
20512;DHT22;10414;52.074;5.126;2023-11-21T05:49:39;11.40;99.90
20512;DHT22;10414;52.074;5.126;2023-11-21T05:52:06;11.30;99.90
20512;DHT22;10414;52.074;5.126;2023-11-21T05:54:36;11.20;99.90
20512;DHT22;10414;52.074;5.126;2023-11-21T05:57:03;11.40;99.90
20512;DHT22;10414;52.074;5.126;2023-11-21T05:59:30;11.50;99.90
20512;DHT22;10414;52.074;5.126;2023-11-21T06:01:56;11.60;99.90
20512;DHT22;10414;52.074;5.126;2023-11-21T06:04:24;11.50;99.90
20512;DHT22;10414;52.074;5.126;2023-11-21T06:06:52;11.60;99.90
20512;DHT22;10414;52.074;5.126;2023-11-21T06:09:22;11.70;99.90
20512;DHT22;10414;52.074;5.126;2023-11-21T06:11:50;11.60;99.90
20512;DHT22;10414;52.074;5.126;2023-11-21T06:14:17;11.50;99.90
20512;DHT22;10414;52.074;5.126;2023-11-21T06:16:44;11.60;99.90
20512;DHT22;10414;52.074;5.126;2023-11-21T06:19:11;11.50;99.90
20512;DHT22;10414;52.074;5.126;2023-11-21T06:21:38;11.60;99.90
20512;DHT22;10414;52.074;5.126;2023-11-21T06:24:07;11.40;99.90
20512;DHT22;10414;52.074;5.126;2023-11-21T06:26:33;11.10;99.90
20512;DHT22;10414;52.074;5.126;2023-11-21T06:29:00;11.40;99.90
20512;DHT22;10414;52.074;5.126;2023-11-21T06:31:28;11.30;99.90
20512;DHT22;10414;52.074;5.126;2023-11-21T06:33:58;11.30;99.90
20512;DHT22;10414;52.074;5.126;2023-11-21T06:36:25;10.70;99.90
20512;DHT22;10414;52.074;5.126;2023-11-21T06:38:52;10.80;99.90
20512;DHT22;10414;52.074;5.126;2023-11-21T06:41:22;11.00;99.90
20512;DHT22;10414;52.074;5.126;2023-11-21T06:43:49;10.80;99.90
20512;DHT22;10414;52.074;5.126;2023-11-21T06:46:16;11.00;99.90
20512;DHT22;10414;52.074;5.126;2023-11-21T06:48:47;11.00;99.90
20512;DHT22;10414;52.074;5.126;2023-11-21T06:51:15;11.20;99.90
20512;DHT22;10414;52.074;5.126;2023-11-21T06:53:43;11.20;99.90
20512;DHT22;10414;52.074;5.126;2023-11-21T06:56:15;11.30;99.90
20512;DHT22;10414;52.074;5.126;2023-11-21T06:58:44;11.30;99.90
20512;DHT22;10414;52.074;5.126;2023-11-21T07:01:12;11.10;99.90
20512;DHT22;10414;52.074;5.126;2023-11-21T07:03:39;11.10;99.90
20512;DHT22;10414;52.074;5.126;2023-11-21T07:06:07;11.10;99.90
20512;DHT22;10414;52.074;5.126;2023-11-21T07:08:37;11.30;99.90
20512;DHT22;10414;52.074;5.126;2023-11-21T07:11:09;11.40;99.90
20512;DHT22;10414;52.074;5.126;2023-11-21T07:13:36;11.40;99.90
20512;DHT22;10414;52.074;5.126;2023-11-21T07:16:07;11.40;99.90
20512;DHT22;10414;52.074;5.126;2023-11-21T07:18:34;11.20;99.90
20512;DHT22;10414;52.074;5.126;2023-11-21T07:21:01;11.10;99.90
20512;DHT22;10414;52.074;5.126;2023-11-21T07:23:29;11.10;99.90
20512;DHT22;10414;52.074;5.126;2023-11-21T07:26:00;11.10;99.90
20512;DHT22;10414;52.074;5.126;2023-11-21T07:28:28;11.10;99.90
20512;DHT22;10414;52.074;5.126;2023-11-21T07:30:55;11.30;99.90
20512;DHT22;10414;52.074;5.126;2023-11-21T07:33:23;11.40;99.90
20512;DHT22;10414;52.074;5.126;2023-11-21T07:35:51;11.40;99.90
20512;DHT22;10414;52.074;5.126;2023-11-21T07:38:20;11.70;99.90
20512;DHT22;10414;52.074;5.126;2023-11-21T07:40:47;11.70;99.90
20512;DHT22;10414;52.074;5.126;2023-11-21T07:43:16;11.70;99.90
20512;DHT22;10414;52.074;5.126;2023-11-21T07:45:45;11.60;99.90
20512;DHT22;10414;52.074;5.126;2023-11-21T07:48:11;11.50;99.90
20512;DHT22;10414;52.074;5.126;2023-11-21T07:50:40;11.50;99.90
20512;DHT22;10414;52.074;5.126;2023-11-21T07:53:06;11.50;99.90
20512;DHT22;10414;52.074;5.126;2023-11-21T07:55:33;11.60;99.90
20512;DHT22;10414;52.074;5.126;2023-11-21T07:58:04;11.80;99.90
20512;DHT22;10414;52.074;5.126;2023-11-21T08:00:34;11.90;99.90
20512;DHT22;10414;52.074;5.126;2023-11-21T08:03:04;11.80;99.90
20512;DHT22;10414;52.074;5.126;2023-11-21T08:05:31;11.60;99.90
20512;DHT22;10414;52.074;5.126;2023-11-21T08:07:59;11.40;99.90
20512;DHT22;10414;52.074;5.126;2023-11-21T08:10:26;11.60;99.90
20512;DHT22;10414;52.074;5.126;2023-11-21T08:13:02;11.50;99.90
20512;DHT22;10414;52.074;5.126;2023-11-21T08:15:29;11.40;99.90
20512;DHT22;10414;52.074;5.126;2023-11-21T08:17:57;11.40;99.90
20512;DHT22;10414;52.074;5.126;2023-11-21T08:20:24;11.30;99.90
20512;DHT22;10414;52.074;5.126;2023-11-21T08:22:51;11.10;99.90
20512;DHT22;10414;52.074;5.126;2023-11-21T08:25:20;11.10;99.90
20512;DHT22;10414;52.074;5.126;2023-11-21T08:27:47;11.10;99.90
20512;DHT22;10414;52.074;5.126;2023-11-21T08:30:14;11.00;99.90
20512;DHT22;10414;52.074;5.126;2023-11-21T08:32:42;11.30;99.90
20512;DHT22;10414;52.074;5.126;2023-11-21T08:35:10;11.30;99.90
20512;DHT22;10414;52.074;5.126;2023-11-21T08:37:37;11.10;99.90
20512;DHT22;10414;52.074;5.126;2023-11-21T08:40:05;11.10;99.90
20512;DHT22;10414;52.074;5.126;2023-11-21T08:42:45;11.20;99.90
20512;DHT22;10414;52.074;5.126;2023-11-21T08:45:12;11.20;99.90
20512;DHT22;10414;52.074;5.126;2023-11-21T08:47:39;11.30;99.90
20512;DHT22;10414;52.074;5.126;2023-11-21T08:50:07;11.20;99.90
20512;DHT22;10414;52.074;5.126;2023-11-21T08:52:34;11.10;99.90
20512;DHT22;10414;52.074;5.126;2023-11-21T08:55:03;11.20;99.90
20512;DHT22;10414;52.074;5.126;2023-11-21T08:57:33;11.50;99.90
20512;DHT22;10414;52.074;5.126;2023-11-21T09:00:02;11.60;99.90
20512;DHT22;10414;52.074;5.126;2023-11-21T09:02:30;11.60;99.90
20512;DHT22;10414;52.074;5.126;2023-11-21T09:04:59;12.00;99.90
20512;DHT22;10414;52.074;5.126;2023-11-21T09:07:30;12.20;99.90
20512;DHT22;10414;52.074;5.126;2023-11-21T09:09:57;12.10;99.90
20512;DHT22;10414;52.074;5.126;2023-11-21T09:12:27;12.20;99.90
20512;DHT22;10414;52.074;5.126;2023-11-21T09:14:56;11.80;99.90
20512;DHT22;10414;52.074;5.126;2023-11-21T09:17:24;11.70;99.90
20512;DHT22;10414;52.074;5.126;2023-11-21T09:19:51;11.80;99.90
20512;DHT22;10414;52.074;5.126;2023-11-21T09:22:18;11.90;99.90
20512;DHT22;10414;52.074;5.126;2023-11-21T09:24:45;11.80;99.90
20512;DHT22;10414;52.074;5.126;2023-11-21T09:27:12;11.80;99.90
20512;DHT22;10414;52.074;5.126;2023-11-21T09:29:45;11.60;99.90
20512;DHT22;10414;52.074;5.126;2023-11-21T09:32:13;11.60;99.90
20512;DHT22;10414;52.074;5.126;2023-11-21T09:34:43;11.60;99.90
20512;DHT22;10414;52.074;5.126;2023-11-21T09:37:11;11.50;99.90
20512;DHT22;10414;52.074;5.126;2023-11-21T09:39:38;11.50;99.90
20512;DHT22;10414;52.074;5.126;2023-11-21T09:42:10;11.70;99.90
20512;DHT22;10414;52.074;5.126;2023-11-21T09:44:45;11.60;99.90
20512;DHT22;10414;52.074;5.126;2023-11-21T09:47:15;11.60;99.90
20512;DHT22;10414;52.074;5.126;2023-11-21T09:49:46;11.60;99.90
20512;DHT22;10414;52.074;5.126;2023-11-21T09:52:23;11.60;99.90
20512;DHT22;10414;52.074;5.126;2023-11-21T09:54:54;11.60;99.90
20512;DHT22;10414;52.074;5.126;2023-11-21T09:57:23;11.60;99.90
20512;DHT22;10414;52.074;5.126;2023-11-21T09:59:51;11.70;99.90
20512;DHT22;10414;52.074;5.126;2023-11-21T10:02:22;11.80;99.90
20512;DHT22;10414;52.074;5.126;2023-11-21T10:04:58;11.70;99.90
20512;DHT22;10414;52.074;5.126;2023-11-21T10:07:27;11.60;99.90
20512;DHT22;10414;52.074;5.126;2023-11-21T10:09:57;11.60;99.90
20512;DHT22;10414;52.074;5.126;2023-11-21T10:12:27;11.40;99.90
20512;DHT22;10414;52.074;5.126;2023-11-21T10:14:57;11.30;99.90
20512;DHT22;10414;52.074;5.126;2023-11-21T10:17:26;11.40;99.90
20512;DHT22;10414;52.074;5.126;2023-11-21T10:19:57;11.40;99.90
20512;DHT22;10414;52.074;5.126;2023-11-21T10:22:25;11.40;99.90
20512;DHT22;10414;52.074;5.126;2023-11-21T10:24:52;11.40;99.90
20512;DHT22;10414;52.074;5.126;2023-11-21T10:27:21;11.60;99.90
20512;DHT22;10414;52.074;5.126;2023-11-21T10:29:51;11.50;99.90
20512;DHT22;10414;52.074;5.126;2023-11-21T10:32:18;11.60;99.90
20512;DHT22;10414;52.074;5.126;2023-11-21T10:34:57;11.40;99.90
20512;DHT22;10414;52.074;5.126;2023-11-21T10:37:27;11.20;99.90
20512;DHT22;10414;52.074;5.126;2023-11-21T10:39:57;11.30;99.90
20512;DHT22;10414;52.074;5.126;2023-11-21T10:42:32;11.40;99.90
20512;DHT22;10414;52.074;5.126;2023-11-21T10:44:59;11.30;99.90
20512;DHT22;10414;52.074;5.126;2023-11-21T10:47:28;11.20;99.90
20512;DHT22;10414;52.074;5.126;2023-11-21T10:49:57;11.30;99.90
20512;DHT22;10414;52.074;5.126;2023-11-21T10:52:29;11.30;99.90
20512;DHT22;10414;52.074;5.126;2023-11-21T10:54:56;11.20;99.90
20512;DHT22;10414;52.074;5.126;2023-11-21T10:57:29;11.10;99.90
20512;DHT22;10414;52.074;5.126;2023-11-21T10:59:57;11.20;99.90
20512;DHT22;10414;52.074;5.126;2023-11-21T11:02:24;11.10;99.90
20512;DHT22;10414;52.074;5.126;2023-11-21T11:04:54;11.20;99.90
20512;DHT22;10414;52.074;5.126;2023-11-21T11:07:25;11.30;99.90
20512;DHT22;10414;52.074;5.126;2023-11-21T11:09:53;11.30;99.90
20512;DHT22;10414;52.074;5.126;2023-11-21T11:12:20;11.30;99.90
20512;DHT22;10414;52.074;5.126;2023-11-21T11:14:48;11.40;99.90
20512;DHT22;10414;52.074;5.126;2023-11-21T11:17:14;11.30;99.90
20512;DHT22;10414;52.074;5.126;2023-11-21T11:19:43;11.30;99.90
20512;DHT22;10414;52.074;5.126;2023-11-21T11:22:20;11.30;99.90
20512;DHT22;10414;52.074;5.126;2023-11-21T11:25:08;11.30;99.90
20512;DHT22;10414;52.074;5.126;2023-11-21T11:27:47;11.30;99.90
20512;DHT22;10414;52.074;5.126;2023-11-21T11:30:23;11.30;99.90
20512;DHT22;10414;52.074;5.126;2023-11-21T11:33:01;11.20;99.90
20512;DHT22;10414;52.074;5.126;2023-11-21T11:35:37;11.10;99.90
20512;DHT22;10414;52.074;5.126;2023-11-21T11:38:07;11.10;99.90
20512;DHT22;10414;52.074;5.126;2023-11-21T11:40:44;11.10;99.90
20512;DHT22;10414;52.074;5.126;2023-11-21T11:43:12;11.10;99.90
20512;DHT22;10414;52.074;5.126;2023-11-21T11:45:39;11.10;99.90
20512;DHT22;10414;52.074;5.126;2023-11-21T11:48:10;11.20;99.90
20512;DHT22;10414;52.074;5.126;2023-11-21T11:53:33;11.00;99.90
20512;DHT22;10414;52.074;5.126;2023-11-21T11:56:21;11.00;99.90
20512;DHT22;10414;52.074;5.126;2023-11-21T11:58:51;11.00;99.90
20512;DHT22;10414;52.074;5.126;2023-11-21T12:01:18;11.00;99.90
20512;DHT22;10414;52.074;5.126;2023-11-21T12:04:23;11.20;99.90
20512;DHT22;10414;52.074;5.126;2023-11-21T12:06:59;11.40;99.90
20512;DHT22;10414;52.074;5.126;2023-11-21T12:09:28;11.50;99.90
20512;DHT22;10414;52.074;5.126;2023-11-21T12:11:58;11.60;99.90
20512;DHT22;10414;52.074;5.126;2023-11-21T12:14:29;11.50;99.90
20512;DHT22;10414;52.074;5.126;2023-11-21T12:16:58;11.60;99.90
20512;DHT22;10414;52.074;5.126;2023-11-21T12:19:25;11.70;99.90
20512;DHT22;10414;52.074;5.126;2023-11-21T12:21:53;11.70;99.90
20512;DHT22;10414;52.074;5.126;2023-11-21T12:24:21;11.70;99.90
20512;DHT22;10414;52.074;5.126;2023-11-21T12:26:49;11.80;99.90
20512;DHT22;10414;52.074;5.126;2023-11-21T12:29:17;11.50;99.90
20512;DHT22;10414;52.074;5.126;2023-11-21T12:31:48;11.50;99.90
20512;DHT22;10414;52.074;5.126;2023-11-21T12:34:15;11.40;99.90
20512;DHT22;10414;52.074;5.126;2023-11-21T12:36:44;11.50;99.90
20512;DHT22;10414;52.074;5.126;2023-11-21T12:39:12;11.40;99.90
20512;DHT22;10414;52.074;5.126;2023-11-21T12:41:40;11.30;99.90
20512;DHT22;10414;52.074;5.126;2023-11-21T12:44:11;11.40;99.90
20512;DHT22;10414;52.074;5.126;2023-11-21T12:46:42;11.20;99.90
20512;DHT22;10414;52.074;5.126;2023-11-21T12:49:11;11.10;99.90
20512;DHT22;10414;52.074;5.126;2023-11-21T12:51:45;11.00;99.90
20512;DHT22;10414;52.074;5.126;2023-11-21T12:54:12;11.10;99.90
20512;DHT22;10414;52.074;5.126;2023-11-21T12:56:39;11.00;99.90
20512;DHT22;10414;52.074;5.126;2023-11-21T12:59:06;11.20;99.90
20512;DHT22;10414;52.074;5.126;2023-11-21T13:01:36;11.30;99.90
20512;DHT22;10414;52.074;5.126;2023-11-21T13:04:08;11.50;99.90
20512;DHT22;10414;52.074;5.126;2023-11-21T13:06:36;11.50;99.90
20512;DHT22;10414;52.074;5.126;2023-11-21T13:09:06;11.70;99.90
20512;DHT22;10414;52.074;5.126;2023-11-21T13:11:36;11.80;99.90
20512;DHT22;10414;52.074;5.126;2023-11-21T13:14:06;11.70;99.90
20512;DHT22;10414;52.074;5.126;2023-11-21T13:16:33;11.70;99.90
20512;DHT22;10414;52.074;5.126;2023-11-21T13:19:02;11.80;99.90
20512;DHT22;10414;52.074;5.126;2023-11-21T13:21:35;11.90;99.90
20512;DHT22;10414;52.074;5.126;2023-11-21T13:24:05;11.70;99.90
20512;DHT22;10414;52.074;5.126;2023-11-21T13:26:32;11.60;99.90
20512;DHT22;10414;52.074;5.126;2023-11-21T13:28:59;11.70;99.90
20512;DHT22;10414;52.074;5.126;2023-11-21T13:31:29;11.80;99.90
20512;DHT22;10414;52.074;5.126;2023-11-21T13:33:56;11.70;99.90
20512;DHT22;10414;52.074;5.126;2023-11-21T13:36:30;11.70;99.90
20512;DHT22;10414;52.074;5.126;2023-11-21T13:39:02;11.60;99.90
20512;DHT22;10414;52.074;5.126;2023-11-21T13:41:32;11.30;99.90
20512;DHT22;10414;52.074;5.126;2023-11-21T13:44:04;11.10;99.90
20512;DHT22;10414;52.074;5.126;2023-11-21T13:46:41;11.00;99.90
20512;DHT22;10414;52.074;5.126;2023-11-21T13:49:07;11.00;99.90
20512;DHT22;10414;52.074;5.126;2023-11-21T13:51:35;11.10;99.90
20512;DHT22;10414;52.074;5.126;2023-11-21T13:54:08;11.10;99.90
20512;DHT22;10414;52.074;5.126;2023-11-21T13:56:35;11.10;99.90
20512;DHT22;10414;52.074;5.126;2023-11-21T13:59:02;11.10;99.90
20512;DHT22;10414;52.074;5.126;2023-11-21T14:01:39;11.10;99.90
20512;DHT22;10414;52.074;5.126;2023-11-21T14:04:20;11.10;99.90
20512;DHT22;10414;52.074;5.126;2023-11-21T14:07:01;11.10;99.90
20512;DHT22;10414;52.074;5.126;2023-11-21T14:09:45;11.00;99.90
20512;DHT22;10414;52.074;5.126;2023-11-21T14:12:17;10.90;99.90
20512;DHT22;10414;52.074;5.126;2023-11-21T14:14:44;11.10;99.90
20512;DHT22;10414;52.074;5.126;2023-11-21T14:17:13;11.00;99.90
20512;DHT22;10414;52.074;5.126;2023-11-21T14:19:40;10.80;99.90
20512;DHT22;10414;52.074;5.126;2023-11-21T14:22:09;10.60;99.90
20512;DHT22;10414;52.074;5.126;2023-11-21T14:24:36;10.50;99.90
20512;DHT22;10414;52.074;5.126;2023-11-21T14:27:11;10.40;99.90
20512;DHT22;10414;52.074;5.126;2023-11-21T14:29:37;10.40;99.90
20512;DHT22;10414;52.074;5.126;2023-11-21T14:32:09;10.40;99.90
20512;DHT22;10414;52.074;5.126;2023-11-21T14:34:36;10.30;99.90
20512;DHT22;10414;52.074;5.126;2023-11-21T14:37:04;10.30;99.90
20512;DHT22;10414;52.074;5.126;2023-11-21T14:39:30;10.30;99.90
20512;DHT22;10414;52.074;5.126;2023-11-21T14:42:04;10.20;99.90
20512;DHT22;10414;52.074;5.126;2023-11-21T14:44:34;10.20;99.90
20512;DHT22;10414;52.074;5.126;2023-11-21T14:47:05;10.10;99.90
20512;DHT22;10414;52.074;5.126;2023-11-21T14:49:40;10.00;99.90
20512;DHT22;10414;52.074;5.126;2023-11-21T14:52:18;10.00;99.90
20512;DHT22;10414;52.074;5.126;2023-11-21T14:55:01;10.00;99.90
20512;DHT22;10414;52.074;5.126;2023-11-21T14:57:47;10.00;99.90
20512;DHT22;10414;52.074;5.126;2023-11-21T15:00:18;9.90;99.90
20512;DHT22;10414;52.074;5.126;2023-11-21T15:03:04;10.00;99.90
20512;DHT22;10414;52.074;5.126;2023-11-21T15:05:32;9.90;99.90
20512;DHT22;10414;52.074;5.126;2023-11-21T15:08:00;10.00;99.90
20512;DHT22;10414;52.074;5.126;2023-11-21T15:10:44;9.90;99.90
20512;DHT22;10414;52.074;5.126;2023-11-21T15:13:12;9.90;99.90
20512;DHT22;10414;52.074;5.126;2023-11-21T15:15:42;9.70;99.90
20512;DHT22;10414;52.074;5.126;2023-11-21T15:18:09;9.80;99.90
20512;DHT22;10414;52.074;5.126;2023-11-21T15:20:37;9.80;99.90
20512;DHT22;10414;52.074;5.126;2023-11-21T15:23:04;9.80;99.90
20512;DHT22;10414;52.074;5.126;2023-11-21T15:25:34;9.80;99.90
20512;DHT22;10414;52.074;5.126;2023-11-21T15:28:01;10.00;99.90
20512;DHT22;10414;52.074;5.126;2023-11-21T15:30:28;9.90;99.90
20512;DHT22;10414;52.074;5.126;2023-11-21T15:33:01;9.90;99.90
20512;DHT22;10414;52.074;5.126;2023-11-21T15:35:29;10.00;99.90
20512;DHT22;10414;52.074;5.126;2023-11-21T15:37:57;9.80;99.90
20512;DHT22;10414;52.074;5.126;2023-11-21T15:40:25;9.70;99.90
20512;DHT22;10414;52.074;5.126;2023-11-21T15:42:52;9.90;99.90
20512;DHT22;10414;52.074;5.126;2023-11-21T15:45:19;10.00;99.90
20512;DHT22;10414;52.074;5.126;2023-11-21T15:47:51;10.00;99.90